sensor_id;sensor_type;location;lat;lon;timestamp;P1;durP1;ratioP1;P2;durP2;ratioP2
5416;SDS011;2731;50.754;12.990;2022-09-28T00:01:21;1.00;;;0.90;;
5416;SDS011;2731;50.754;12.990;2022-09-28T00:03:48;2.70;;;1.05;;
5416;SDS011;2731;50.754;12.990;2022-09-28T00:06:16;1.25;;;1.05;;
5416;SDS011;2731;50.754;12.990;2022-09-28T00:08:45;1.48;;;1.00;;
5416;SDS011;2731;50.754;12.990;2022-09-28T00:11:13;1.40;;;1.10;;
5416;SDS011;2731;50.754;12.990;2022-09-28T00:13:40;1.27;;;0.90;;
5416;SDS011;2731;50.754;12.990;2022-09-28T00:16:08;0.82;;;0.70;;
5416;SDS011;2731;50.754;12.990;2022-09-28T00:18:37;1.48;;;1.20;;
5416;SDS011;2731;50.754;12.990;2022-09-28T00:21:05;1.60;;;1.35;;
5416;SDS011;2731;50.754;12.990;2022-09-28T00:23:33;1.83;;;1.20;;
5416;SDS011;2731;50.754;12.990;2022-09-28T00:26:06;1.77;;;1.20;;
5416;SDS011;2731;50.754;12.990;2022-09-28T00:28:31;1.55;;;1.13;;
5416;SDS011;2731;50.754;12.990;2022-09-28T00:31:00;1.95;;;0.90;;
5416;SDS011;2731;50.754;12.990;2022-09-28T00:33:26;1.40;;;1.30;;
5416;SDS011;2731;50.754;12.990;2022-09-28T00:35:56;1.05;;;0.95;;
5416;SDS011;2731;50.754;12.990;2022-09-28T00:38:26;1.25;;;1.15;;
5416;SDS011;2731;50.754;12.990;2022-09-28T00:40:54;1.35;;;1.05;;
5416;SDS011;2731;50.754;12.990;2022-09-28T00:43:21;1.27;;;1.05;;
5416;SDS011;2731;50.754;12.990;2022-09-28T00:45:52;1.25;;;1.15;;
5416;SDS011;2731;50.754;12.990;2022-09-28T00:48:39;1.23;;;1.13;;
5416;SDS011;2731;50.754;12.990;2022-09-28T00:51:17;1.33;;;1.02;;
5416;SDS011;2731;50.754;12.990;2022-09-28T00:53:44;1.25;;;1.02;;
5416;SDS011;2731;50.754;12.990;2022-09-28T00:56:12;3.83;;;1.13;;
5416;SDS011;2731;50.754;12.990;2022-09-28T00:58:44;2.90;;;1.17;;
5416;SDS011;2731;50.754;12.990;2022-09-28T01:01:13;1.40;;;0.95;;
5416;SDS011;2731;50.754;12.990;2022-09-28T01:03:40;1.52;;;1.30;;
5416;SDS011;2731;50.754;12.990;2022-09-28T01:06:09;2.47;;;1.20;;
5416;SDS011;2731;50.754;12.990;2022-09-28T01:08:43;1.23;;;1.00;;
5416;SDS011;2731;50.754;12.990;2022-09-28T01:11:11;1.40;;;1.00;;
5416;SDS011;2731;50.754;12.990;2022-09-28T01:13:36;2.25;;;1.00;;
5416;SDS011;2731;50.754;12.990;2022-09-28T01:19:11;1.27;;;0.93;;
5416;SDS011;2731;50.754;12.990;2022-09-28T01:21:49;1.67;;;1.02;;
5416;SDS011;2731;50.754;12.990;2022-09-28T01:27:23;2.42;;;1.13;;
5416;SDS011;2731;50.754;12.990;2022-09-28T01:30:11;4.72;;;1.35;;
5416;SDS011;2731;50.754;12.990;2022-09-28T01:32:46;2.10;;;1.13;;
5416;SDS011;2731;50.754;12.990;2022-09-28T01:36:01;1.92;;;1.10;;
5416;SDS011;2731;50.754;12.990;2022-09-28T01:38:29;1.25;;;0.98;;
5416;SDS011;2731;50.754;12.990;2022-09-28T01:40:58;1.00;;;0.90;;
5416;SDS011;2731;50.754;12.990;2022-09-28T01:43:27;2.22;;;1.10;;
5416;SDS011;2731;50.754;12.990;2022-09-28T01:46:55;1.23;;;0.93;;
5416;SDS011;2731;50.754;12.990;2022-09-28T01:51:45;1.48;;;1.15;;
5416;SDS011;2731;50.754;12.990;2022-09-28T01:54:35;2.05;;;1.13;;
5416;SDS011;2731;50.754;12.990;2022-09-28T01:57:13;0.68;;;0.68;;
5416;SDS011;2731;50.754;12.990;2022-09-28T01:59:45;1.50;;;1.00;;
5416;SDS011;2731;50.754;12.990;2022-09-28T02:02:46;1.58;;;1.30;;
5416;SDS011;2731;50.754;12.990;2022-09-28T02:05:27;1.13;;;1.02;;
5416;SDS011;2731;50.754;12.990;2022-09-28T02:10:51;0.70;;;0.70;;
5416;SDS011;2731;50.754;12.990;2022-09-28T02:13:21;1.08;;;0.90;;
5416;SDS011;2731;50.754;12.990;2022-09-28T02:18:49;1.55;;;1.05;;
5416;SDS011;2731;50.754;12.990;2022-09-28T02:24:14;1.17;;;0.90;;
5416;SDS011;2731;50.754;12.990;2022-09-28T02:26:44;2.05;;;1.10;;
5416;SDS011;2731;50.754;12.990;2022-09-28T02:29:10;0.98;;;0.90;;
5416;SDS011;2731;50.754;12.990;2022-09-28T02:31:36;0.82;;;0.80;;
5416;SDS011;2731;50.754;12.990;2022-09-28T02:34:02;1.30;;;1.00;;
5416;SDS011;2731;50.754;12.990;2022-09-28T02:36:27;1.15;;;1.00;;
5416;SDS011;2731;50.754;12.990;2022-09-28T02:38:53;1.15;;;0.90;;
5416;SDS011;2731;50.754;12.990;2022-09-28T02:41:24;0.95;;;0.85;;
5416;SDS011;2731;50.754;12.990;2022-09-28T02:44:13;1.00;;;0.90;;
5416;SDS011;2731;50.754;12.990;2022-09-28T03:03:56;1.83;;;0.80;;
5416;SDS011;2731;50.754;12.990;2022-09-28T03:06:45;1.02;;;0.95;;
5416;SDS011;2731;50.754;12.990;2022-09-28T03:11:48;1.25;;;1.00;;
5416;SDS011;2731;50.754;12.990;2022-09-28T03:14:16;0.98;;;0.90;;
5416;SDS011;2731;50.754;12.990;2022-09-28T03:16:44;0.90;;;0.80;;
5416;SDS011;2731;50.754;12.990;2022-09-28T03:19:10;0.98;;;0.90;;
5416;SDS011;2731;50.754;12.990;2022-09-28T03:21:36;1.42;;;1.02;;
5416;SDS011;2731;50.754;12.990;2022-09-28T03:24:02;0.70;;;0.70;;
5416;SDS011;2731;50.754;12.990;2022-09-28T03:26:33;2.95;;;1.10;;
5416;SDS011;2731;50.754;12.990;2022-09-28T03:28:59;0.95;;;0.80;;
5416;SDS011;2731;50.754;12.990;2022-09-28T03:31:25;2.40;;;1.10;;
5416;SDS011;2731;50.754;12.990;2022-09-28T03:33:51;1.45;;;1.00;;
5416;SDS011;2731;50.754;12.990;2022-09-28T03:36:17;1.17;;;1.08;;
5416;SDS011;2731;50.754;12.990;2022-09-28T03:38:44;3.80;;;1.45;;
5416;SDS011;2731;50.754;12.990;2022-09-28T03:41:11;3.38;;;1.13;;
5416;SDS011;2731;50.754;12.990;2022-09-28T03:43:38;1.70;;;1.38;;
5416;SDS011;2731;50.754;12.990;2022-09-28T03:46:03;1.23;;;1.00;;
5416;SDS011;2731;50.754;12.990;2022-09-28T03:48:32;1.27;;;1.00;;
5416;SDS011;2731;50.754;12.990;2022-09-28T03:51:04;1.38;;;1.10;;
5416;SDS011;2731;50.754;12.990;2022-09-28T03:53:40;1.58;;;1.20;;
5416;SDS011;2731;50.754;12.990;2022-09-28T03:56:12;1.65;;;0.98;;
5416;SDS011;2731;50.754;12.990;2022-09-28T03:58:39;0.95;;;0.95;;
5416;SDS011;2731;50.754;12.990;2022-09-28T04:01:09;1.10;;;1.00;;
5416;SDS011;2731;50.754;12.990;2022-09-28T04:03:37;1.63;;;1.27;;
5416;SDS011;2731;50.754;12.990;2022-09-28T04:06:04;1.10;;;0.98;;
5416;SDS011;2731;50.754;12.990;2022-09-28T04:08:30;2.83;;;0.88;;
5416;SDS011;2731;50.754;12.990;2022-09-28T04:11:01;3.13;;;1.30;;
5416;SDS011;2731;50.754;12.990;2022-09-28T04:13:27;1.98;;;1.38;;
5416;SDS011;2731;50.754;12.990;2022-09-28T04:15:54;1.33;;;1.13;;
5416;SDS011;2731;50.754;12.990;2022-09-28T04:18:21;1.50;;;1.20;;
5416;SDS011;2731;50.754;12.990;2022-09-28T04:21:01;2.63;;;1.17;;
5416;SDS011;2731;50.754;12.990;2022-09-28T04:23:33;2.25;;;1.88;;
5416;SDS011;2731;50.754;12.990;2022-09-28T04:26:01;1.63;;;1.52;;
5416;SDS011;2731;50.754;12.990;2022-09-28T04:28:42;1.75;;;0.85;;
5416;SDS011;2731;50.754;12.990;2022-09-28T04:31:26;2.70;;;1.40;;
5416;SDS011;2731;50.754;12.990;2022-09-28T04:33:54;1.48;;;1.00;;
5416;SDS011;2731;50.754;12.990;2022-09-28T04:36:22;1.38;;;1.17;;
5416;SDS011;2731;50.754;12.990;2022-09-28T04:38:51;1.50;;;0.88;;
5416;SDS011;2731;50.754;12.990;2022-09-28T04:41:18;0.93;;;0.90;;
5416;SDS011;2731;50.754;12.990;2022-09-28T04:43:46;1.40;;;1.10;;
5416;SDS011;2731;50.754;12.990;2022-09-28T04:46:12;1.30;;;1.17;;
5416;SDS011;2731;50.754;12.990;2022-09-28T04:48:40;0.85;;;0.85;;
5416;SDS011;2731;50.754;12.990;2022-09-28T04:51:05;1.45;;;1.10;;
5416;SDS011;2731;50.754;12.990;2022-09-28T04:53:32;0.90;;;0.90;;
5416;SDS011;2731;50.754;12.990;2022-09-28T04:56:01;1.48;;;1.10;;
5416;SDS011;2731;50.754;12.990;2022-09-28T04:58:32;1.25;;;1.00;;
5416;SDS011;2731;50.754;12.990;2022-09-28T05:01:00;1.80;;;1.08;;
5416;SDS011;2731;50.754;12.990;2022-09-28T05:03:29;2.25;;;0.93;;
5416;SDS011;2731;50.754;12.990;2022-09-28T05:05:57;1.65;;;0.88;;
5416;SDS011;2731;50.754;12.990;2022-09-28T05:08:23;1.10;;;1.00;;
5416;SDS011;2731;50.754;12.990;2022-09-28T05:10:55;1.27;;;0.88;;
5416;SDS011;2731;50.754;12.990;2022-09-28T05:13:24;0.85;;;0.85;;
5416;SDS011;2731;50.754;12.990;2022-09-28T05:15:51;1.10;;;0.90;;
5416;SDS011;2731;50.754;12.990;2022-09-28T05:18:20;1.70;;;1.48;;
5416;SDS011;2731;50.754;12.990;2022-09-28T05:20:47;2.35;;;1.20;;
5416;SDS011;2731;50.754;12.990;2022-09-28T05:23:15;4.15;;;1.40;;
5416;SDS011;2731;50.754;12.990;2022-09-28T05:25:42;2.95;;;1.52;;
5416;SDS011;2731;50.754;12.990;2022-09-28T05:28:11;3.65;;;1.20;;
5416;SDS011;2731;50.754;12.990;2022-09-28T05:30:38;2.22;;;1.27;;
5416;SDS011;2731;50.754;12.990;2022-09-28T05:33:06;1.23;;;1.13;;
5416;SDS011;2731;50.754;12.990;2022-09-28T05:35:32;1.63;;;1.50;;
5416;SDS011;2731;50.754;12.990;2022-09-28T05:38:02;1.95;;;1.45;;
5416;SDS011;2731;50.754;12.990;2022-09-28T05:40:29;2.90;;;1.80;;
5416;SDS011;2731;50.754;12.990;2022-09-28T05:42:59;6.25;;;2.22;;
5416;SDS011;2731;50.754;12.990;2022-09-28T05:45:28;5.88;;;2.50;;
5416;SDS011;2731;50.754;12.990;2022-09-28T05:47:54;4.22;;;2.47;;
5416;SDS011;2731;50.754;12.990;2022-09-28T05:50:21;5.05;;;2.50;;
5416;SDS011;2731;50.754;12.990;2022-09-28T05:52:47;4.90;;;2.42;;
5416;SDS011;2731;50.754;12.990;2022-09-28T05:55:22;4.88;;;2.70;;
5416;SDS011;2731;50.754;12.990;2022-09-28T05:57:48;8.18;;;3.80;;
5416;SDS011;2731;50.754;12.990;2022-09-28T06:00:14;5.55;;;2.90;;
5416;SDS011;2731;50.754;12.990;2022-09-28T06:02:41;3.22;;;2.30;;
5416;SDS011;2731;50.754;12.990;2022-09-28T06:05:06;4.03;;;1.90;;
5416;SDS011;2731;50.754;12.990;2022-09-28T06:07:34;2.95;;;1.90;;
5416;SDS011;2731;50.754;12.990;2022-09-28T06:10:05;3.92;;;2.22;;
5416;SDS011;2731;50.754;12.990;2022-09-28T06:12:32;2.10;;;1.58;;
5416;SDS011;2731;50.754;12.990;2022-09-28T06:14:58;3.45;;;1.55;;
5416;SDS011;2731;50.754;12.990;2022-09-28T06:17:26;2.53;;;1.70;;
5416;SDS011;2731;50.754;12.990;2022-09-28T06:19:53;2.53;;;1.73;;
5416;SDS011;2731;50.754;12.990;2022-09-28T06:22:19;5.35;;;2.67;;
5416;SDS011;2731;50.754;12.990;2022-09-28T06:24:44;2.80;;;2.25;;
5416;SDS011;2731;50.754;12.990;2022-09-28T06:27:12;4.05;;;2.47;;
5416;SDS011;2731;50.754;12.990;2022-09-28T06:29:39;3.03;;;2.08;;
5416;SDS011;2731;50.754;12.990;2022-09-28T06:32:06;2.55;;;2.28;;
5416;SDS011;2731;50.754;12.990;2022-09-28T06:34:31;3.05;;;2.33;;
5416;SDS011;2731;50.754;12.990;2022-09-28T06:36:59;2.28;;;2.00;;
5416;SDS011;2731;50.754;12.990;2022-09-28T06:39:25;3.40;;;2.10;;
5416;SDS011;2731;50.754;12.990;2022-09-28T06:41:52;3.50;;;2.40;;
5416;SDS011;2731;50.754;12.990;2022-09-28T06:44:18;2.42;;;2.05;;
5416;SDS011;2731;50.754;12.990;2022-09-28T06:46:44;5.28;;;2.15;;
5416;SDS011;2731;50.754;12.990;2022-09-28T06:49:10;3.03;;;2.00;;
5416;SDS011;2731;50.754;12.990;2022-09-28T06:51:36;3.22;;;1.98;;
5416;SDS011;2731;50.754;12.990;2022-09-28T06:54:03;2.83;;;2.25;;
5416;SDS011;2731;50.754;12.990;2022-09-28T06:56:28;3.08;;;2.17;;
5416;SDS011;2731;50.754;12.990;2022-09-28T06:58:54;4.97;;;2.33;;
5416;SDS011;2731;50.754;12.990;2022-09-28T07:01:21;2.58;;;2.05;;
5416;SDS011;2731;50.754;12.990;2022-09-28T07:03:48;2.65;;;1.95;;
5416;SDS011;2731;50.754;12.990;2022-09-28T07:06:13;5.03;;;2.70;;
5416;SDS011;2731;50.754;12.990;2022-09-28T07:08:41;1.75;;;1.52;;
5416;SDS011;2731;50.754;12.990;2022-09-28T07:11:07;2.97;;;2.10;;
5416;SDS011;2731;50.754;12.990;2022-09-28T07:13:34;1.98;;;1.70;;
5416;SDS011;2731;50.754;12.990;2022-09-28T07:16:00;3.47;;;1.83;;
5416;SDS011;2731;50.754;12.990;2022-09-28T07:18:27;2.63;;;2.08;;
5416;SDS011;2731;50.754;12.990;2022-09-28T07:20:55;6.88;;;2.22;;
5416;SDS011;2731;50.754;12.990;2022-09-28T07:23:23;4.32;;;2.47;;
5416;SDS011;2731;50.754;12.990;2022-09-28T07:25:54;3.42;;;2.40;;
5416;SDS011;2731;50.754;12.990;2022-09-28T07:28:19;3.15;;;1.98;;
5416;SDS011;2731;50.754;12.990;2022-09-28T07:30:46;4.22;;;2.75;;
5416;SDS011;2731;50.754;12.990;2022-09-28T07:33:14;5.57;;;2.53;;
5416;SDS011;2731;50.754;12.990;2022-09-28T07:35:51;3.00;;;2.15;;
5416;SDS011;2731;50.754;12.990;2022-09-28T07:38:19;3.55;;;1.73;;
5416;SDS011;2731;50.754;12.990;2022-09-28T07:40:45;3.03;;;1.75;;
5416;SDS011;2731;50.754;12.990;2022-09-28T07:43:29;2.22;;;1.50;;
5416;SDS011;2731;50.754;12.990;2022-09-28T07:45:56;3.17;;;1.23;;
5416;SDS011;2731;50.754;12.990;2022-09-28T07:48:23;1.50;;;1.40;;
5416;SDS011;2731;50.754;12.990;2022-09-28T07:50:49;2.15;;;1.38;;
5416;SDS011;2731;50.754;12.990;2022-09-28T07:53:18;1.75;;;1.63;;
5416;SDS011;2731;50.754;12.990;2022-09-28T07:55:52;2.13;;;1.23;;
5416;SDS011;2731;50.754;12.990;2022-09-28T07:58:35;1.98;;;1.63;;
5416;SDS011;2731;50.754;12.990;2022-09-28T08:01:14;1.38;;;1.27;;
5416;SDS011;2731;50.754;12.990;2022-09-28T08:03:42;1.83;;;1.27;;
5416;SDS011;2731;50.754;12.990;2022-09-28T08:06:14;2.60;;;1.20;;
5416;SDS011;2731;50.754;12.990;2022-09-28T08:08:42;1.92;;;1.17;;
5416;SDS011;2731;50.754;12.990;2022-09-28T08:11:12;2.75;;;1.15;;
5416;SDS011;2731;50.754;12.990;2022-09-28T08:13:40;1.73;;;1.45;;
5416;SDS011;2731;50.754;12.990;2022-09-28T08:16:05;1.73;;;0.80;;
5416;SDS011;2731;50.754;12.990;2022-09-28T08:18:34;0.80;;;0.80;;
5416;SDS011;2731;50.754;12.990;2022-09-28T08:21:00;2.85;;;1.67;;
5416;SDS011;2731;50.754;12.990;2022-09-28T08:23:46;0.70;;;0.70;;
5416;SDS011;2731;50.754;12.990;2022-09-28T08:26:15;1.38;;;1.10;;
5416;SDS011;2731;50.754;12.990;2022-09-28T08:28:41;1.00;;;0.75;;
5416;SDS011;2731;50.754;12.990;2022-09-28T08:31:11;1.52;;;0.80;;
5416;SDS011;2731;50.754;12.990;2022-09-28T08:33:37;2.40;;;1.00;;
5416;SDS011;2731;50.754;12.990;2022-09-28T08:36:04;1.20;;;1.10;;
5416;SDS011;2731;50.754;12.990;2022-09-28T08:38:31;2.53;;;0.70;;
5416;SDS011;2731;50.754;12.990;2022-09-28T08:46:48;1.35;;;0.95;;
5416;SDS011;2731;50.754;12.990;2022-09-28T08:49:20;1.17;;;0.70;;
5416;SDS011;2731;50.754;12.990;2022-09-28T08:55:01;1.58;;;0.95;;
5416;SDS011;2731;50.754;12.990;2022-09-28T08:58:00;1.33;;;0.80;;
5416;SDS011;2731;50.754;12.990;2022-09-28T09:00:38;4.18;;;0.93;;
5416;SDS011;2731;50.754;12.990;2022-09-28T09:03:19;1.33;;;0.55;;
5416;SDS011;2731;50.754;12.990;2022-09-28T09:20:16;1.05;;;0.75;;
5416;SDS011;2731;50.754;12.990;2022-09-28T09:23:13;1.20;;;0.80;;
5416;SDS011;2731;50.754;12.990;2022-09-28T09:26:30;1.80;;;0.45;;
5416;SDS011;2731;50.754;12.990;2022-09-28T09:28:53;1.92;;;0.77;;
5416;SDS011;2731;50.754;12.990;2022-09-28T09:31:42;1.65;;;0.60;;
5416;SDS011;2731;50.754;12.990;2022-09-28T09:34:29;0.40;;;0.40;;
5416;SDS011;2731;50.754;12.990;2022-09-28T09:37:08;0.50;;;0.50;;
5416;SDS011;2731;50.754;12.990;2022-09-28T09:45:32;0.50;;;0.50;;
5416;SDS011;2731;50.754;12.990;2022-09-28T09:48:17;5.25;;;0.63;;
5416;SDS011;2731;50.754;12.990;2022-09-28T09:50:57;0.50;;;0.50;;
5416;SDS011;2731;50.754;12.990;2022-09-28T09:53:40;0.50;;;0.50;;
5416;SDS011;2731;50.754;12.990;2022-09-28T09:56:52;0.75;;;0.60;;
5416;SDS011;2731;50.754;12.990;2022-09-28T09:59:09;1.23;;;0.55;;
5416;SDS011;2731;50.754;12.990;2022-09-28T10:01:37;0.40;;;0.40;;
5416;SDS011;2731;50.754;12.990;2022-09-28T10:04:05;0.50;;;0.40;;
5416;SDS011;2731;50.754;12.990;2022-09-28T10:06:37;0.70;;;0.60;;
5416;SDS011;2731;50.754;12.990;2022-09-28T10:09:04;0.38;;;0.38;;
5416;SDS011;2731;50.754;12.990;2022-09-28T10:11:43;1.35;;;0.80;;
5416;SDS011;2731;50.754;12.990;2022-09-28T10:14:17;0.22;;;0.22;;
5416;SDS011;2731;50.754;12.990;2022-09-28T10:16:48;0.30;;;0.30;;
5416;SDS011;2731;50.754;12.990;2022-09-28T10:19:16;0.30;;;0.30;;
5416;SDS011;2731;50.754;12.990;2022-09-28T10:21:46;0.30;;;0.30;;
5416;SDS011;2731;50.754;12.990;2022-09-28T10:24:21;0.20;;;0.20;;
5416;SDS011;2731;50.754;12.990;2022-09-28T10:26:53;0.50;;;0.40;;
5416;SDS011;2731;50.754;12.990;2022-09-28T10:29:24;1.45;;;0.50;;
5416;SDS011;2731;50.754;12.990;2022-09-28T10:31:52;0.30;;;0.30;;
5416;SDS011;2731;50.754;12.990;2022-09-28T10:34:26;0.20;;;0.20;;
5416;SDS011;2731;50.754;12.990;2022-09-28T10:37:00;0.55;;;0.55;;
5416;SDS011;2731;50.754;12.990;2022-09-28T10:39:39;0.50;;;0.40;;
5416;SDS011;2731;50.754;12.990;2022-09-28T10:42:08;0.88;;;0.55;;
5416;SDS011;2731;50.754;12.990;2022-09-28T10:47:25;0.60;;;0.40;;
5416;SDS011;2731;50.754;12.990;2022-09-28T10:49:57;0.43;;;0.40;;
5416;SDS011;2731;50.754;12.990;2022-09-28T10:52:39;0.50;;;0.47;;
5416;SDS011;2731;50.754;12.990;2022-09-28T10:57:52;0.68;;;0.50;;
5416;SDS011;2731;50.754;12.990;2022-09-28T11:00:39;0.88;;;0.80;;
5416;SDS011;2731;50.754;12.990;2022-09-28T11:03:17;0.60;;;0.60;;
5416;SDS011;2731;50.754;12.990;2022-09-28T11:06:06;0.98;;;0.90;;
5416;SDS011;2731;50.754;12.990;2022-09-28T11:08:42;1.40;;;1.27;;
5416;SDS011;2731;50.754;12.990;2022-09-28T11:11:13;0.60;;;0.60;;
5416;SDS011;2731;50.754;12.990;2022-09-28T11:13:47;0.70;;;0.70;;
5416;SDS011;2731;50.754;12.990;2022-09-28T11:16:32;0.60;;;0.60;;
5416;SDS011;2731;50.754;12.990;2022-09-28T11:19:02;0.30;;;0.30;;
5416;SDS011;2731;50.754;12.990;2022-09-28T11:21:50;0.38;;;0.38;;
5416;SDS011;2731;50.754;12.990;2022-09-28T11:24:18;0.50;;;0.50;;
5416;SDS011;2731;50.754;12.990;2022-09-28T11:26:46;0.50;;;0.50;;
5416;SDS011;2731;50.754;12.990;2022-09-28T11:29:38;1.13;;;0.43;;
5416;SDS011;2731;50.754;12.990;2022-09-28T11:32:07;0.77;;;0.57;;
5416;SDS011;2731;50.754;12.990;2022-09-28T11:34:35;1.67;;;0.73;;
5416;SDS011;2731;50.754;12.990;2022-09-28T11:39:58;0.60;;;0.60;;
5416;SDS011;2731;50.754;12.990;2022-09-28T11:42:58;0.60;;;0.60;;
5416;SDS011;2731;50.754;12.990;2022-09-28T11:51:03;0.45;;;0.40;;
5416;SDS011;2731;50.754;12.990;2022-09-28T11:53:53;0.40;;;0.30;;
5416;SDS011;2731;50.754;12.990;2022-09-28T11:56:40;0.90;;;0.70;;
5416;SDS011;2731;50.754;12.990;2022-09-28T11:59:22;1.05;;;0.70;;
5416;SDS011;2731;50.754;12.990;2022-09-28T12:01:55;1.05;;;0.60;;
5416;SDS011;2731;50.754;12.990;2022-09-28T12:04:38;0.88;;;0.60;;
5416;SDS011;2731;50.754;12.990;2022-09-28T12:07:31;0.55;;;0.50;;
5416;SDS011;2731;50.754;12.990;2022-09-28T12:15:45;0.68;;;0.50;;
5416;SDS011;2731;50.754;12.990;2022-09-28T12:18:20;1.00;;;0.40;;
5416;SDS011;2731;50.754;12.990;2022-09-28T12:29:03;0.73;;;0.68;;
5416;SDS011;2731;50.754;12.990;2022-09-28T12:34:42;0.30;;;0.30;;
5416;SDS011;2731;50.754;12.990;2022-09-28T12:37:23;0.50;;;0.50;;
5416;SDS011;2731;50.754;12.990;2022-09-28T12:40:36;1.85;;;1.00;;
5416;SDS011;2731;50.754;12.990;2022-09-28T12:49:28;0.80;;;0.80;;
5416;SDS011;2731;50.754;12.990;2022-09-28T13:00:36;6.72;;;6.03;;
5416;SDS011;2731;50.754;12.990;2022-09-28T13:03:31;1.88;;;1.75;;
5416;SDS011;2731;50.754;12.990;2022-09-28T13:11:54;2.38;;;2.17;;
5416;SDS011;2731;50.754;12.990;2022-09-28T13:17:41;1.20;;;1.05;;
5416;SDS011;2731;50.754;12.990;2022-09-28T13:20:38;2.00;;;1.80;;
5416;SDS011;2731;50.754;12.990;2022-09-28T13:28:12;1.23;;;1.05;;
5416;SDS011;2731;50.754;12.990;2022-09-28T13:30:40;1.42;;;1.30;;
5416;SDS011;2731;50.754;12.990;2022-09-28T13:33:14;1.50;;;1.00;;
5416;SDS011;2731;50.754;12.990;2022-09-28T13:35:44;3.05;;;1.30;;
5416;SDS011;2731;50.754;12.990;2022-09-28T13:44:01;1.58;;;1.25;;
5416;SDS011;2731;50.754;12.990;2022-09-28T14:01:16;2.55;;;1.45;;
5416;SDS011;2731;50.754;12.990;2022-09-28T14:11:57;1.60;;;1.30;;
5416;SDS011;2731;50.754;12.990;2022-09-28T14:14:45;1.38;;;0.98;;
5416;SDS011;2731;50.754;12.990;2022-09-28T14:19:51;1.58;;;1.10;;
5416;SDS011;2731;50.754;12.990;2022-09-28T14:25:21;2.25;;;1.25;;
5416;SDS011;2731;50.754;12.990;2022-09-28T14:30:45;1.35;;;1.08;;
5416;SDS011;2731;50.754;12.990;2022-09-28T14:41:46;2.40;;;0.95;;
5416;SDS011;2731;50.754;12.990;2022-09-28T14:44:14;1.88;;;1.45;;
5416;SDS011;2731;50.754;12.990;2022-09-28T14:46:45;2.15;;;0.90;;
5416;SDS011;2731;50.754;12.990;2022-09-28T14:54:49;1.23;;;1.13;;
5416;SDS011;2731;50.754;12.990;2022-09-28T14:57:16;2.90;;;1.55;;
5416;SDS011;2731;50.754;12.990;2022-09-28T14:59:55;1.85;;;1.45;;
5416;SDS011;2731;50.754;12.990;2022-09-28T15:02:34;3.03;;;1.15;;
5416;SDS011;2731;50.754;12.990;2022-09-28T15:05:12;2.13;;;1.50;;
5416;SDS011;2731;50.754;12.990;2022-09-28T15:07:45;1.30;;;1.00;;
5416;SDS011;2731;50.754;12.990;2022-09-28T15:10:27;5.63;;;1.63;;
5416;SDS011;2731;50.754;12.990;2022-09-28T15:12:59;2.38;;;1.05;;
5416;SDS011;2731;50.754;12.990;2022-09-28T15:15:36;2.50;;;1.58;;
5416;SDS011;2731;50.754;12.990;2022-09-28T15:20:57;1.42;;;0.90;;
5416;SDS011;2731;50.754;12.990;2022-09-28T15:23:33;1.30;;;1.00;;
5416;SDS011;2731;50.754;12.990;2022-09-28T15:26:06;1.52;;;1.10;;
5416;SDS011;2731;50.754;12.990;2022-09-28T15:28:43;1.90;;;1.00;;
5416;SDS011;2731;50.754;12.990;2022-09-28T15:31:15;1.75;;;1.02;;
5416;SDS011;2731;50.754;12.990;2022-09-28T15:33:44;1.42;;;0.90;;
5416;SDS011;2731;50.754;12.990;2022-09-28T15:36:31;1.80;;;0.95;;
5416;SDS011;2731;50.754;12.990;2022-09-28T15:39:02;2.70;;;1.38;;
5416;SDS011;2731;50.754;12.990;2022-09-28T15:41:47;2.78;;;1.40;;
5416;SDS011;2731;50.754;12.990;2022-09-28T15:44:18;1.33;;;1.02;;
5416;SDS011;2731;50.754;12.990;2022-09-28T15:49:55;1.50;;;1.30;;
5416;SDS011;2731;50.754;12.990;2022-09-28T15:52:30;3.08;;;1.75;;
5416;SDS011;2731;50.754;12.990;2022-09-28T15:55:02;2.10;;;1.60;;
5416;SDS011;2731;50.754;12.990;2022-09-28T15:57:35;1.63;;;1.42;;
5416;SDS011;2731;50.754;12.990;2022-09-28T16:00:50;2.90;;;1.88;;
5416;SDS011;2731;50.754;12.990;2022-09-28T16:08:36;2.15;;;1.60;;
5416;SDS011;2731;50.754;12.990;2022-09-28T16:11:11;2.22;;;1.52;;
5416;SDS011;2731;50.754;12.990;2022-09-28T16:14:22;1.88;;;1.60;;
5416;SDS011;2731;50.754;12.990;2022-09-28T16:16:49;2.35;;;1.50;;
5416;SDS011;2731;50.754;12.990;2022-09-28T16:19:23;1.85;;;1.38;;
5416;SDS011;2731;50.754;12.990;2022-09-28T16:21:51;2.63;;;1.75;;
5416;SDS011;2731;50.754;12.990;2022-09-28T16:24:32;2.13;;;1.60;;
5416;SDS011;2731;50.754;12.990;2022-09-28T16:27:02;3.60;;;1.80;;
5416;SDS011;2731;50.754;12.990;2022-09-28T16:29:37;2.47;;;1.92;;
5416;SDS011;2731;50.754;12.990;2022-09-28T16:37:47;2.53;;;1.70;;
5416;SDS011;2731;50.754;12.990;2022-09-28T16:40:22;2.10;;;1.45;;
5416;SDS011;2731;50.754;12.990;2022-09-28T16:42:48;1.83;;;1.52;;
5416;SDS011;2731;50.754;12.990;2022-09-28T16:45:17;2.50;;;1.70;;
5416;SDS011;2731;50.754;12.990;2022-09-28T16:47:44;2.70;;;1.80;;
5416;SDS011;2731;50.754;12.990;2022-09-28T16:50:14;3.60;;;1.60;;
5416;SDS011;2731;50.754;12.990;2022-09-28T16:52:41;2.22;;;1.40;;
5416;SDS011;2731;50.754;12.990;2022-09-28T16:55:27;2.03;;;1.60;;
5416;SDS011;2731;50.754;12.990;2022-09-28T16:57:52;1.73;;;1.45;;
5416;SDS011;2731;50.754;12.990;2022-09-28T17:00:24;2.17;;;1.55;;
5416;SDS011;2731;50.754;12.990;2022-09-28T17:02:50;1.70;;;1.40;;
5416;SDS011;2731;50.754;12.990;2022-09-28T17:05:20;1.98;;;1.58;;
5416;SDS011;2731;50.754;12.990;2022-09-28T17:08:08;1.95;;;1.45;;
5416;SDS011;2731;50.754;12.990;2022-09-28T17:10:39;2.58;;;1.63;;
5416;SDS011;2731;50.754;12.990;2022-09-28T17:13:09;2.65;;;1.70;;
5416;SDS011;2731;50.754;12.990;2022-09-28T17:15:37;1.65;;;1.45;;
5416;SDS011;2731;50.754;12.990;2022-09-28T17:18:03;2.10;;;1.33;;
5416;SDS011;2731;50.754;12.990;2022-09-28T17:20:31;1.73;;;1.38;;
5416;SDS011;2731;50.754;12.990;2022-09-28T17:22:58;2.08;;;1.50;;
5416;SDS011;2731;50.754;12.990;2022-09-28T17:25:24;3.15;;;2.00;;
5416;SDS011;2731;50.754;12.990;2022-09-28T17:27:52;2.88;;;2.03;;
5416;SDS011;2731;50.754;12.990;2022-09-28T17:30:25;3.08;;;1.58;;
5416;SDS011;2731;50.754;12.990;2022-09-28T17:32:50;4.10;;;1.75;;
5416;SDS011;2731;50.754;12.990;2022-09-28T17:35:17;3.17;;;1.83;;
5416;SDS011;2731;50.754;12.990;2022-09-28T17:37:45;4.72;;;1.50;;
5416;SDS011;2731;50.754;12.990;2022-09-28T17:40:14;2.75;;;1.73;;
5416;SDS011;2731;50.754;12.990;2022-09-28T17:42:55;3.83;;;2.15;;
5416;SDS011;2731;50.754;12.990;2022-09-28T17:45:25;3.05;;;2.30;;
5416;SDS011;2731;50.754;12.990;2022-09-28T17:47:53;2.90;;;1.92;;
5416;SDS011;2731;50.754;12.990;2022-09-28T17:50:26;6.72;;;2.50;;
5416;SDS011;2731;50.754;12.990;2022-09-28T17:52:54;5.53;;;2.50;;
5416;SDS011;2731;50.754;12.990;2022-09-28T17:55:24;2.60;;;1.85;;
5416;SDS011;2731;50.754;12.990;2022-09-28T17:57:53;3.45;;;2.03;;
5416;SDS011;2731;50.754;12.990;2022-09-28T18:00:19;3.63;;;2.15;;
5416;SDS011;2731;50.754;12.990;2022-09-28T18:02:46;2.67;;;2.08;;
5416;SDS011;2731;50.754;12.990;2022-09-28T18:05:16;4.43;;;1.95;;
5416;SDS011;2731;50.754;12.990;2022-09-28T18:07:45;4.18;;;2.72;;
5416;SDS011;2731;50.754;12.990;2022-09-28T18:10:15;3.58;;;2.65;;
5416;SDS011;2731;50.754;12.990;2022-09-28T18:12:46;3.42;;;2.70;;
5416;SDS011;2731;50.754;12.990;2022-09-28T18:15:15;3.60;;;2.15;;
5416;SDS011;2731;50.754;12.990;2022-09-28T18:17:43;4.28;;;2.80;;
5416;SDS011;2731;50.754;12.990;2022-09-28T18:20:11;3.72;;;2.80;;
5416;SDS011;2731;50.754;12.990;2022-09-28T18:22:37;4.65;;;3.20;;
5416;SDS011;2731;50.754;12.990;2022-09-28T18:25:03;4.40;;;2.88;;
5416;SDS011;2731;50.754;12.990;2022-09-28T18:27:30;4.05;;;2.83;;
5416;SDS011;2731;50.754;12.990;2022-09-28T18:29:58;3.65;;;2.35;;
5416;SDS011;2731;50.754;12.990;2022-09-28T18:32:24;3.50;;;2.50;;
5416;SDS011;2731;50.754;12.990;2022-09-28T18:34:51;4.38;;;2.47;;
5416;SDS011;2731;50.754;12.990;2022-09-28T18:37:18;3.88;;;2.55;;
5416;SDS011;2731;50.754;12.990;2022-09-28T18:39:46;4.15;;;2.83;;
5416;SDS011;2731;50.754;12.990;2022-09-28T18:42:11;3.28;;;2.60;;
5416;SDS011;2731;50.754;12.990;2022-09-28T18:44:40;3.45;;;2.45;;